Time;durP1;ratioP1;P1;durP2;ratioP2;P2;SDS_P1;SDS_P2;PMS_P1;PMS_P2;Temp;Humidity;BMP_temperature;BMP_pressure;BME280_temperature;BME280_humidity;BME280_pressure;Samples;Min_cycle;Max_cycle;Signal;HPM_P1;HPM_P2
2021/07/01 00:00:20;;;;;;;7.88;6.43;;;;;;;;;;5079293;28;20048;-78
2021/07/01 00:02:46;;;;;;;10.48;7.05;;;;;;;;;;5078357;28;20071;-78
2021/07/01 00:05:13;;;;;;;9.73;6.43;;;;;;;;;;5078897;28;20045;-78
2021/07/01 00:07:40;;;;;;;14.80;6.78;;;;;;;;;;5076963;28;20040;-78
2021/07/01 00:10:20;;;;;;;8.93;6.18;;;;;;;;;;5078207;28;20025;-78
2021/07/01 00:12:46;;;;;;;11.38;6.32;;;;;;;;;;5076800;28;20032;-78
2021/07/01 00:15:14;;;;;;;7.75;6.25;;;;;;;;;;5078005;28;20039;-78
2021/07/01 00:17:41;;;;;;;11.30;6.53;;;;;;;;;;5076894;28;20044;-78
2021/07/01 00:20:09;;;;;;;12.27;7.03;;;;;;;;;;5076316;28;20036;-78
2021/07/01 00:22:35;;;;;;;9.98;6.78;;;;;;;;;;5078503;28;20028;-78
2021/07/01 00:25:00;;;;;;;8.20;6.88;;;;;;;;;;5078156;28;20429;-78
2021/07/01 00:27:28;;;;;;;9.00;6.20;;;;;;;;;;5077903;28;20032;-79
2021/07/01 00:29:53;;;;;;;9.55;6.95;;;;;;;;;;5078026;28;20401;-78
2021/07/01 00:32:19;;;;;;;11.70;7.40;;;;;;;;;;5078470;28;20040;-78
2021/07/01 00:34:44;;;;;;;10.93;6.70;;;;;;;;;;5079078;28;20064;-79
2021/07/01 00:37:10;;;;;;;10.38;7.88;;;;;;;;;;5079750;28;20033;-79
2021/07/01 00:39:35;;;;;;;10.70;7.93;;;;;;;;;;5078966;28;20040;-78
2021/07/01 00:42:01;;;;;;;13.18;8.40;;;;;;;;;;5078369;28;20040;-78
2021/07/01 00:44:26;;;;;;;14.70;9.15;;;;;;;;;;5059215;28;20466;-78
2021/07/01 00:46:51;;;;;;;11.13;7.85;;;;;;;;;;5076363;28;20045;-78
2021/07/01 00:49:17;;;;;;;12.35;9.18;;;;;;;;;;5077978;28;20048;-78
2021/07/01 00:51:42;;;;;;;13.90;8.18;;;;;;;;;;5076577;28;20051;-78
2021/07/01 00:54:09;;;;;;;15.85;8.73;;;;;;;;;;5078294;28;20464;-78
2021/07/01 00:56:38;;;;;;;14.80;8.73;;;;;;;;;;5077264;28;20089;-78
2021/07/01 00:59:04;;;;;;;12.13;9.18;;;;;;;;;;5077547;28;20064;-78
2021/07/01 01:01:30;;;;;;;11.10;9.18;;;;;;;;;;5076055;28;20445;-78
2021/07/01 01:03:55;;;;;;;9.52;7.53;;;;;;;;;;5076594;28;20088;-78
2021/07/01 01:06:22;;;;;;;14.77;8.48;;;;;;;;;;5075303;28;20033;-78
2021/07/01 01:08:49;;;;;;;12.10;7.45;;;;;;;;;;5075220;28;20041;-78
2021/07/01 01:11:15;;;;;;;10.57;8.23;;;;;;;;;;5076604;28;20071;-78
2021/07/01 01:13:44;;;;;;;13.35;7.40;;;;;;;;;;5076848;28;20035;-78
2021/07/01 01:16:41;;;;;;;10.82;7.65;;;;;;;;;;5074328;28;20029;-78
2021/07/01 01:19:08;;;;;;;13.40;9.07;;;;;;;;;;5058836;28;20024;-78
2021/07/01 01:21:36;;;;;;;12.88;8.02;;;;;;;;;;5075978;28;20035;-78
2021/07/01 01:24:04;;;;;;;11.57;7.93;;;;;;;;;;5069306;28;20036;-78
2021/07/01 01:26:30;;;;;;;12.00;9.13;;;;;;;;;;5055018;28;20033;-78
2021/07/01 01:28:57;;;;;;;9.77;7.60;;;;;;;;;;5056862;28;20094;-78
2021/07/01 01:31:24;;;;;;;10.85;8.77;;;;;;;;;;5056601;28;20033;-78
2021/07/01 01:33:50;;;;;;;10.88;7.90;;;;;;;;;;5056515;28;20499;-78
2021/07/01 01:36:16;;;;;;;14.23;7.85;;;;;;;;;;5038368;28;20044;-78
2021/07/01 01:38:45;;;;;;;14.38;7.63;;;;;;;;;;5055591;28;20041;-78
2021/07/01 01:41:31;;;;;;;10.95;8.05;;;;;;;;;;5071507;28;20021;-78
2021/07/01 01:43:57;;;;;;;9.63;7.07;;;;;;;;;;5056897;28;20029;-78
2021/07/01 01:46:37;;;;;;;9.82;6.88;;;;;;;;;;5070893;28;20040;-78
2021/07/01 01:49:05;;;;;;;10.90;7.60;;;;;;;;;;5056168;28;20029;-78
2021/07/01 01:51:33;;;;;;;11.27;6.70;;;;;;;;;;5056027;28;20029;-78
2021/07/01 01:53:59;;;;;;;8.30;6.10;;;;;;;;;;5061430;28;20039;-78
2021/07/01 01:56:36;;;;;;;10.82;6.55;;;;;;;;;;5075107;28;20565;-78
2021/07/01 01:59:02;;;;;;;;;;;;;;;;;;5077966;28;20028;-78
2021/07/01 02:01:46;;;;;;;9.45;6.18;;;;;;;;;;5076359;28;19958;-78
2021/07/01 02:04:11;;;;;;;8.38;6.15;;;;;;;;;;5076817;28;20025;-78
2021/07/01 02:06:41;;;;;;;10.70;6.25;;;;;;;;;;5077123;28;20028;-78
2021/07/01 02:09:07;;;;;;;6.75;5.80;;;;;;;;;;5076088;28;20115;-78
2021/07/01 02:11:42;;;;;;;11.83;6.80;;;;;;;;;;5059917;28;20383;-78
2021/07/01 02:14:08;;;;;;;10.32;5.85;;;;;;;;;;5074864;28;20278;-79
2021/07/01 02:16:52;;;;;;;11.15;5.90;;;;;;;;;;5076454;28;20447;-78
2021/07/01 02:19:18;;;;;;;10.50;5.20;;;;;;;;;;5077271;28;20111;-78
2021/07/01 02:21:45;;;;;;;11.07;5.45;;;;;;;;;;5075258;28;20016;-78
2021/07/01 02:24:11;;;;;;;9.93;4.70;;;;;;;;;;5073776;28;20108;-78
2021/07/01 02:26:38;;;;;;;7.07;4.93;;;;;;;;;;5075144;28;20113;-78
2021/07/01 02:29:03;;;;;;;6.30;4.43;;;;;;;;;;5076179;28;20033;-78
2021/07/01 02:31:54;;;;;;;8.63;5.10;;;;;;;;;;5074943;28;20032;-78
2021/07/01 02:34:21;;;;;;;8.77;4.65;;;;;;;;;;5076182;28;20031;-78
2021/07/01 02:37:13;;;;;;;12.15;4.38;;;;;;;;;;5066174;28;20068;-79
2021/07/01 02:39:57;;;;;;;6.82;3.63;;;;;;;;;;5075877;28;20139;-78
2021/07/01 02:42:23;;;;;;;7.28;4.72;;;;;;;;;;5074580;28;20024;-78
2021/07/01 02:44:49;;;;;;;6.05;4.57;;;;;;;;;;5074743;28;20036;-78
2021/07/01 02:47:44;;;;;;;10.18;4.10;;;;;;;;;;5071535;28;20042;-78
2021/07/01 02:50:10;;;;;;;8.60;4.35;;;;;;;;;;5077339;28;20122;-80
2021/07/01 02:52:37;;;;;;;10.15;3.70;;;;;;;;;;5077406;28;20075;-79
2021/07/01 02:55:06;;;;;;;6.28;3.85;;;;;;;;;;5075871;28;20060;-79
2021/07/01 02:57:33;;;;;;;6.93;3.65;;;;;;;;;;5076638;28;20036;-80
2021/07/01 02:59:58;;;;;;;9.20;4.32;;;;;;;;;;5075688;28;20107;-77
2021/07/01 03:02:39;;;;;;;9.38;5.00;;;;;;;;;;5073018;28;20406;-77
2021/07/01 03:05:31;;;;;;;12.63;4.78;;;;;;;;;;5072126;28;20037;-77
2021/07/01 03:07:57;;;;;;;7.03;4.70;;;;;;;;;;5072640;28;20032;-76
2021/07/01 03:10:23;;;;;;;9.73;4.82;;;;;;;;;;5076258;28;20034;-77
2021/07/01 03:12:59;;;;;;;11.27;4.75;;;;;;;;;;5076267;28;20369;-77
2021/07/01 03:15:24;;;;;;;7.22;4.63;;;;;;;;;;5076276;28;20041;-77
2021/07/01 03:17:50;;;;;;;10.57;5.07;;;;;;;;;;5074671;28;20041;-77
2021/07/01 03:20:18;;;;;;;20.42;6.38;;;;;;;;;;5075020;28;20394;-76
2021/07/01 03:23:02;;;;;;;9.07;5.13;;;;;;;;;;5075847;28;20043;-77
2021/07/01 03:25:28;;;;;;;13.23;5.25;;;;;;;;;;5075897;28;20115;-76
2021/07/01 03:27:54;;;;;;;9.05;4.78;;;;;;;;;;5075750;28;20158;-77
2021/07/01 03:30:19;;;;;;;13.30;5.40;;;;;;;;;;5074767;28;20077;-76
2021/07/01 03:32:45;;;;;;;15.30;4.70;;;;;;;;;;5074466;28;20109;-77
2021/07/01 03:35:12;;;;;;;12.63;6.38;;;;;;;;;;5074557;28;20040;-76
2021/07/01 03:37:58;;;;;;;12.68;5.93;;;;;;;;;;5074174;28;20573;-77
2021/07/01 03:40:29;;;;;;;12.73;5.68;;;;;;;;;;5074722;28;20032;-77
2021/07/01 03:42:55;;;;;;;15.20;5.28;;;;;;;;;;5075978;28;20032;-77
2021/07/01 03:45:20;;;;;;;13.45;5.47;;;;;;;;;;5075408;28;20040;-77
2021/07/01 03:47:46;;;;;;;17.30;7.10;;;;;;;;;;5075223;28;20447;-77
2021/07/01 03:50:12;;;;;;;13.25;6.03;;;;;;;;;;5075542;28;20028;-77
2021/07/01 03:52:56;;;;;;;15.50;6.63;;;;;;;;;;5075462;28;20158;-77
2021/07/01 03:55:23;;;;;;;17.73;7.03;;;;;;;;;;5057722;28;20032;-77
2021/07/01 03:57:48;;;;;;;11.52;6.00;;;;;;;;;;5074282;28;20119;-77
2021/07/01 04:00:15;;;;;;;23.20;7.05;;;;;;;;;;5075393;28;20071;-77
2021/07/01 04:02:51;;;;;;;15.98;6.43;;;;;;;;;;5073568;28;20375;-77
2021/07/01 04:05:21;;;;;;;13.52;6.07;;;;;;;;;;5074292;28;20066;-77
2021/07/01 04:07:48;;;;;;;12.60;6.10;;;;;;;;;;5076453;28;20034;-77
2021/07/01 04:10:18;;;;;;;16.45;6.50;;;;;;;;;;5084122;28;20042;-76
2021/07/01 04:12:56;;;;;;;10.95;5.88;;;;;;;;;;5082909;28;20055;-77
2021/07/01 04:15:24;;;;;;;14.68;6.18;;;;;;;;;;5080232;28;20573;-77
2021/07/01 04:18:13;;;;;;;13.88;6.18;;;;;;;;;;5078286;28;20067;-77
2021/07/01 04:20:57;;;;;;;11.18;6.30;;;;;;;;;;5079886;28;20047;-77
2021/07/01 04:23:41;;;;;;;18.90;7.72;;;;;;;;;;5084229;28;20070;-77
2021/07/01 04:26:25;;;;;;;13.98;6.80;;;;;;;;;;5081783;28;20047;-77
2021/07/01 04:28:51;;;;;;;11.43;6.25;;;;;;;;;;5077970;28;20036;-77
2021/07/01 04:31:20;;;;;;;16.30;6.78;;;;;;;;;;5075153;28;20402;-77
2021/07/01 04:33:51;;;;;;;15.85;6.50;;;;;;;;;;5077057;28;20078;-77
2021/07/01 04:36:17;;;;;;;12.23;6.70;;;;;;;;;;5076968;28;20394;-77
2021/07/01 04:38:43;;;;;;;14.00;7.13;;;;;;;;;;5078172;28;20024;-77
2021/07/01 04:41:09;;;;;;;13.65;6.90;;;;;;;;;;5067211;28;20071;-77
2021/07/01 04:43:35;;;;;;;16.98;6.63;;;;;;;;;;5085035;28;20036;-77
2021/07/01 04:46:00;;;;;;;17.00;6.78;;;;;;;;;;5082981;28;20116;-76
2021/07/01 04:48:27;;;;;;;15.43;6.80;;;;;;;;;;5083501;28;20056;-76
2021/07/01 04:50:54;;;;;;;12.93;6.55;;;;;;;;;;5083913;28;20056;-77
2021/07/01 04:53:41;;;;;;;10.00;5.53;;;;;;;;;;5080617;28;20434;-77
2021/07/01 04:56:25;;;;;;;12.02;6.38;;;;;;;;;;5078833;28;20491;-76
2021/07/01 04:59:01;;;;;;;;;;;;;;;;;;5063415;28;20036;-76
2021/07/01 05:01:46;;;;;;;10.65;5.35;;;;;;;;;;5077248;28;19927;-77
2021/07/01 05:04:40;;;;;;;9.40;5.80;;;;;;;;;;5076218;28;20029;-77
2021/07/01 05:07:07;;;;;;;10.85;5.50;;;;;;;;;;5077800;28;20399;-77
2021/07/01 05:09:36;;;;;;;9.65;5.10;;;;;;;;;;5062602;28;20402;-76
2021/07/01 05:12:30;;;;;;;12.63;5.38;;;;;;;;;;5079963;28;20044;-77
2021/07/01 05:14:57;;;;;;;6.75;4.60;;;;;;;;;;5080500;28;20063;-76
2021/07/01 05:17:22;;;;;;;8.57;5.28;;;;;;;;;;5078004;28;20036;-77
2021/07/01 05:19:47;;;;;;;8.30;6.00;;;;;;;;;;5076472;28;20682;-77
2021/07/01 05:22:17;;;;;;;8.27;4.22;;;;;;;;;;5076737;28;20374;-77
2021/07/01 05:25:09;;;;;;;10.43;4.53;;;;;;;;;;5076321;28;20162;-77
2021/07/01 05:27:53;;;;;;;8.07;4.37;;;;;;;;;;5075685;28;20128;-77
2021/07/01 05:30:38;;;;;;;8.00;4.47;;;;;;;;;;5075405;28;20047;-77
2021/07/01 05:33:22;;;;;;;7.25;4.45;;;;;;;;;;5075785;28;20105;-77
2021/07/01 05:35:51;;;;;;;9.32;3.88;;;;;;;;;;5075563;28;20050;-77
2021/07/01 05:38:17;;;;;;;7.80;4.20;;;;;;;;;;5075515;28;20447;-77
2021/07/01 05:40:43;;;;;;;8.35;4.32;;;;;;;;;;5076343;28;20043;-77
2021/07/01 05:43:09;;;;;;;10.23;4.07;;;;;;;;;;5076439;28;20028;-77
2021/07/01 05:45:35;;;;;;;7.72;4.15;;;;;;;;;;5075253;28;20123;-76
2021/07/01 05:48:01;;;;;;;4.95;3.70;;;;;;;;;;5076880;28;20091;-77
2021/07/01 05:50:28;;;;;;;10.55;4.25;;;;;;;;;;5077304;28;20035;-77
2021/07/01 05:53:01;;;;;;;9.10;3.97;;;;;;;;;;5077437;28;20382;-77
2021/07/01 05:55:26;;;;;;;9.30;4.15;;;;;;;;;;5078014;28;20040;-77
2021/07/01 05:57:51;;;;;;;6.13;4.07;;;;;;;;;;5078238;28;20052;-77
2021/07/01 06:00:18;;;;;;;10.10;4.30;;;;;;;;;;5078874;28;20043;-77
2021/07/01 06:02:48;;;;;;;9.73;4.25;;;;;;;;;;5078234;28;20025;-77
2021/07/01 06:05:14;;;;;;;8.32;3.70;;;;;;;;;;5078937;28;20046;-77
2021/07/01 06:07:58;;;;;;;6.45;4.05;;;;;;;;;;5077679;28;20402;-77
2021/07/01 06:10:27;;;;;;;9.68;3.83;;;;;;;;;;5075612;28;20131;-77
2021/07/01 06:12:54;;;;;;;5.63;3.60;;;;;;;;;;5076035;28;20509;-77
2021/07/01 06:15:20;;;;;;;5.85;3.88;;;;;;;;;;5075966;28;20043;-77
2021/07/01 06:17:47;;;;;;;8.90;3.80;;;;;;;;;;5075405;28;20037;-78
2021/07/01 06:20:13;;;;;;;7.28;4.22;;;;;;;;;;5076499;28;20036;-77
2021/07/01 06:22:39;;;;;;;7.30;4.70;;;;;;;;;;5076653;28;20036;-78
2021/07/01 06:25:05;;;;;;;10.27;5.07;;;;;;;;;;5076528;28;20517;-78
2021/07/01 06:27:36;;;;;;;9.80;4.22;;;;;;;;;;5075651;28;20044;-78
2021/07/01 06:30:09;;;;;;;6.55;4.55;;;;;;;;;;5075497;28;20067;-78
2021/07/01 06:32:44;;;;;;;8.10;4.97;;;;;;;;;;5075730;28;20052;-78
2021/07/01 06:35:12;;;;;;;9.55;4.90;;;;;;;;;;5078179;28;20380;-77
2021/07/01 06:37:39;;;;;;;10.38;5.22;;;;;;;;;;5078714;28;20029;-78
2021/07/01 06:40:24;;;;;;;8.70;4.63;;;;;;;;;;5078511;28;20059;-77
2021/07/01 06:43:08;;;;;;;9.00;5.43;;;;;;;;;;5080108;28;20365;-77
2021/07/01 06:45:59;;;;;;;9.68;4.93;;;;;;;;;;5082448;28;20051;-78
2021/07/01 06:48:46;;;;;;;10.00;5.03;;;;;;;;;;5080345;28;20539;-80
2021/07/01 06:51:39;;;;;;;9.90;5.40;;;;;;;;;;5085422;28;20040;-79
2021/07/01 06:54:24;;;;;;;9.18;5.55;;;;;;;;;;5081490;28;20078;-81
2021/07/01 06:56:59;;;;;;;6.20;4.97;;;;;;;;;;5079819;28;20059;-78
2021/07/01 06:59:26;;;;;;;9.65;5.57;;;;;;;;;;5077792;28;20032;-78
2021/07/01 07:01:52;;;;;;;9.65;5.93;;;;;;;;;;5076269;28;20094;-77
2021/07/01 07:04:19;;;;;;;8.15;5.53;;;;;;;;;;5077060;28;20040;-77
2021/07/01 07:06:46;;;;;;;9.93;5.88;;;;;;;;;;5080484;28;20044;-77
2021/07/01 07:09:13;;;;;;;8.40;5.00;;;;;;;;;;5078501;28;20452;-79
2021/07/01 07:11:39;;;;;;;7.82;4.93;;;;;;;;;;5079898;28;20058;-80
2021/07/01 07:14:05;;;;;;;9.85;5.55;;;;;;;;;;5078659;28;20091;-79
2021/07/01 07:16:34;;;;;;;8.40;5.30;;;;;;;;;;5085412;28;20040;-80
2021/07/01 07:19:02;;;;;;;9.30;5.32;;;;;;;;;;5085734;28;20024;-82
2021/07/01 07:21:34;;;;;;;7.82;5.25;;;;;;;;;;5083597;28;20040;-82
2021/07/01 07:24:01;;;;;;;8.10;5.20;;;;;;;;;;5076505;28;20147;-81
2021/07/01 07:26:27;;;;;;;8.52;5.72;;;;;;;;;;5080495;28;20071;-81
2021/07/01 07:28:55;;;;;;;8.38;4.70;;;;;;;;;;5081128;28;20028;-81
2021/07/01 07:31:31;;;;;;;7.57;5.32;;;;;;;;;;5063268;28;20040;-81
2021/07/01 07:34:00;;;;;;;8.07;5.10;;;;;;;;;;5085717;28;20107;-79
2021/07/01 07:36:26;;;;;;;8.10;4.43;;;;;;;;;;5080361;28;20021;-79
2021/07/01 07:38:53;;;;;;;5.63;3.95;;;;;;;;;;5081632;28;20028;-79
2021/07/01 07:41:19;;;;;;;6.15;4.20;;;;;;;;;;5086204;28;20040;-80
2021/07/01 07:43:46;;;;;;;6.22;4.07;;;;;;;;;;5078773;28;20107;-80
2021/07/01 07:46:12;;;;;;;7.32;4.65;;;;;;;;;;5077054;28;20102;-80
2021/07/01 07:48:39;;;;;;;7.30;3.72;;;;;;;;;;5059101;28;20036;-79
2021/07/01 07:51:05;;;;;;;6.40;3.80;;;;;;;;;;5060846;28;20466;-81
2021/07/01 07:53:34;;;;;;;5.00;3.50;;;;;;;;;;5078336;28;20090;-80
2021/07/01 07:56:05;;;;;;;5.38;3.50;;;;;;;;;;5076749;28;20044;-80
2021/07/01 07:58:33;;;;;;;5.03;3.47;;;;;;;;;;5084597;28;20088;-79
2021/07/01 08:01:00;;;;;;;6.30;4.68;;;;;;;;;;5083569;28;20040;-80
2021/07/01 08:03:32;;;;;;;5.40;3.60;;;;;;;;;;5086398;28;20044;-81
2021/07/01 08:06:00;;;;;;;4.68;3.90;;;;;;;;;;5089080;28;20036;-80
2021/07/01 08:08:29;;;;;;;5.68;3.75;;;;;;;;;;5077113;28;20481;-79
2021/07/01 08:10:56;;;;;;;6.65;3.50;;;;;;;;;;5077701;28;20039;-79
2021/07/01 08:13:22;;;;;;;6.88;3.38;;;;;;;;;;5074333;28;20068;-79
2021/07/01 08:15:47;;;;;;;5.03;3.58;;;;;;;;;;5074802;28;20043;-79
2021/07/01 08:18:41;;;;;;;5.10;2.88;;;;;;;;;;5075025;28;20066;-80
2021/07/01 08:21:13;;;;;;;4.88;3.45;;;;;;;;;;5076682;28;20545;-79
2021/07/01 08:23:41;;;;;;;6.03;3.22;;;;;;;;;;5075325;28;20501;-84
2021/07/01 08:26:08;;;;;;;5.00;2.60;;;;;;;;;;5079661;28;20044;-82
2021/07/01 08:28:34;;;;;;;4.47;3.30;;;;;;;;;;5081808;28;20036;-82
2021/07/01 08:31:08;;;;;;;3.45;3.13;;;;;;;;;;5082247;28;20034;-80
2021/07/01 08:33:36;;;;;;;4.97;3.20;;;;;;;;;;5065548;28;20426;-82
2021/07/01 08:36:03;;;;;;;3.58;2.85;;;;;;;;;;5065920;28;20036;-84
2021/07/01 08:38:34;;;;;;;5.07;2.67;;;;;;;;;;5082432;28;20066;-83
2021/07/01 08:41:10;;;;;;;8.63;4.75;;;;;;;;;;5079352;28;20044;-82
2021/07/01 08:43:50;;;;;;;6.38;3.65;;;;;;;;;;5062059;28;20355;-84
2021/07/01 08:46:23;;;;;;;4.35;2.60;;;;;;;;;;5081201;28;20078;-84
2021/07/01 08:48:58;;;;;;;115.85;6.57;;;;;;;;;;5083022;28;20042;-83
2021/07/01 08:51:39;;;;;;;35.47;3.22;;;;;;;;;;5081616;28;20040;-84
2021/07/01 08:54:26;;;;;;;32.53;3.92;;;;;;;;;;5072492;28;20037;-85
2021/07/01 08:56:54;;;;;;;16.35;2.85;;;;;;;;;;5041757;28;20029;-85
2021/07/01 08:59:21;;;;;;;7.43;2.65;;;;;;;;;;5057770;28;20502;-84
2021/07/01 09:02:08;;;;;;;2.25;2.05;;;;;;;;;;5056928;28;20032;-85
2021/07/01 09:04:46;;;;;;;5.82;2.35;;;;;;;;;;5054700;28;20041;-85
2021/07/01 09:07:18;;;;;;;6.22;2.20;;;;;;;;;;5071047;28;20051;-84
2021/07/01 09:09:52;;;;;;;5.70;2.17;;;;;;;;;;5055223;28;20043;-84
2021/07/01 09:12:22;;;;;;;3.55;2.42;;;;;;;;;;5056204;28;20140;-85
2021/07/01 09:14:54;;;;;;;5.93;2.03;;;;;;;;;;5071569;28;20403;-84
2021/07/01 09:17:22;;;;;;;4.18;2.45;;;;;;;;;;5056839;28;20033;-84
2021/07/01 09:19:48;;;;;;;2.47;2.10;;;;;;;;;;5072412;28;20037;-85
2021/07/01 09:22:16;;;;;;;2.75;2.00;;;;;;;;;;5057972;28;20061;-83
2021/07/01 09:24:48;;;;;;;3.30;2.42;;;;;;;;;;5067579;28;20044;-84
2021/07/01 09:27:13;;;;;;;4.18;2.30;;;;;;;;;;5060463;28;20048;-86
2021/07/01 09:29:45;;;;;;;2.25;2.05;;;;;;;;;;5060433;28;20040;-85
2021/07/01 09:32:12;;;;;;;3.38;2.10;;;;;;;;;;5062361;28;20102;-83
2021/07/01 09:34:40;;;;;;;4.10;2.25;;;;;;;;;;5063504;28;20072;-85
2021/07/01 09:37:06;;;;;;;3.22;1.83;;;;;;;;;;5065750;28;20526;-83
2021/07/01 09:39:32;;;;;;;2.60;1.90;;;;;;;;;;5066359;28;20025;-82
2021/07/01 09:42:03;;;;;;;3.13;1.77;;;;;;;;;;5061850;28;20037;-82
2021/07/01 09:44:32;;;;;;;4.93;2.28;;;;;;;;;;5059532;28;20068;-79
2021/07/01 09:46:58;;;;;;;2.38;1.95;;;;;;;;;;5056807;28;20198;-78
2021/07/01 09:49:33;;;;;;;2.28;1.90;;;;;;;;;;5057152;28;20117;-78
2021/07/01 09:52:04;;;;;;;4.18;2.35;;;;;;;;;;5058091;28;20123;-78
2021/07/01 09:54:32;;;;;;;5.50;2.17;;;;;;;;;;5065804;28;20040;-78
2021/07/01 09:57:07;;;;;;;2.38;2.10;;;;;;;;;;5074713;28;20036;-78
2021/07/01 09:59:54;;;;;;;3.17;2.10;;;;;;;;;;5073236;28;20413;-78
2021/07/01 10:02:21;;;;;;;3.30;2.30;;;;;;;;;;5076881;28;20047;-77
2021/07/01 10:04:48;;;;;;;2.95;2.25;;;;;;;;;;5078231;28;20028;-78
2021/07/01 10:07:22;;;;;;;5.38;2.50;;;;;;;;;;5080160;28;20067;-78
2021/07/01 10:09:53;;;;;;;6.30;3.15;;;;;;;;;;5080275;28;20072;-79
2021/07/01 10:12:21;;;;;;;6.55;2.70;;;;;;;;;;5080599;28;20044;-78
2021/07/01 10:14:49;;;;;;;4.82;2.38;;;;;;;;;;5078455;28;20076;-80
2021/07/01 10:17:18;;;;;;;5.32;2.25;;;;;;;;;;5076066;28;20032;-83
2021/07/01 10:19:44;;;;;;;7.72;2.65;;;;;;;;;;5074184;28;20040;-79
2021/07/01 10:22:12;;;;;;;3.30;2.25;;;;;;;;;;5075739;28;20038;-79
2021/07/01 10:25:00;;;;;;;3.60;2.50;;;;;;;;;;5074933;28;20040;-79
2021/07/01 10:27:36;;;;;;;2.22;2.03;;;;;;;;;;5076509;28;20075;-78
2021/07/01 10:30:16;;;;;;;3.40;2.58;;;;;;;;;;5078871;28;20032;-79
2021/07/01 10:32:47;;;;;;;2.95;2.65;;;;;;;;;;5077591;28;20512;-80
2021/07/01 10:35:24;;;;;;;3.78;2.72;;;;;;;;;;5080233;28;20028;-79
2021/07/01 10:38:13;;;;;;;4.43;2.90;;;;;;;;;;5081006;28;20040;-80
2021/07/01 10:40:47;;;;;;;4.22;2.85;;;;;;;;;;5082937;28;20115;-83
2021/07/01 10:43:15;;;;;;;3.88;2.78;;;;;;;;;;5081403;28;20063;-81
2021/07/01 10:45:56;;;;;;;5.00;3.42;;;;;;;;;;5078525;28;20052;-81
2021/07/01 10:48:28;;;;;;;6.05;3.55;;;;;;;;;;5082417;28;20058;-79
2021/07/01 10:51:04;;;;;;;7.78;3.80;;;;;;;;;;5076381;28;20108;-78
2021/07/01 10:53:31;;;;;;;7.18;3.42;;;;;;;;;;5078461;28;20037;-78
2021/07/01 10:56:24;;;;;;;5.80;3.53;;;;;;;;;;5083004;28;20037;-79
2021/07/01 10:58:56;;;;;;;8.27;5.03;;;;;;;;;;5083250;28;20036;-79
2021/07/01 11:01:23;;;;;;;6.10;3.55;;;;;;;;;;5083222;28;20036;-80
2021/07/01 11:04:04;;;;;;;6.93;4.05;;;;;;;;;;5082596;28;20387;-81
2021/07/01 11:06:30;;;;;;;6.90;4.03;;;;;;;;;;5084476;28;20046;-80
2021/07/01 11:08:56;;;;;;;5.22;3.70;;;;;;;;;;5085907;28;20079;-80
2021/07/01 11:11:23;;;;;;;5.57;3.90;;;;;;;;;;5084118;28;20041;-80
2021/07/01 11:13:54;;;;;;;5.38;4.07;;;;;;;;;;5085659;28;20135;-80
2021/07/01 11:16:20;;;;;;;7.45;4.18;;;;;;;;;;5085464;28;20036;-80
2021/07/01 11:18:49;;;;;;;5.70;4.20;;;;;;;;;;5085937;28;20043;-80
2021/07/01 11:21:17;;;;;;;3.50;3.13;;;;;;;;;;5086476;28;20040;-81
2021/07/01 11:23:46;;;;;;;7.38;4.70;;;;;;;;;;5085725;28;20060;-81
2021/07/01 11:26:31;;;;;;;7.07;4.35;;;;;;;;;;5084402;28;20036;-81
2021/07/01 11:28:58;;;;;;;7.85;4.07;;;;;;;;;;5084183;28;20040;-81
2021/07/01 11:31:34;;;;;;;5.40;4.90;;;;;;;;;;5087463;28;20074;-81
2021/07/01 11:34:01;;;;;;;;;;;;;;;;;;5088267;28;20367;-81
2021/07/01 11:36:26;;;;;;;;;;;;;;;;;;5090953;28;19979;-82
2021/07/01 11:39:08;;;;;;;8.10;5.65;;;;;;;;;;5091434;28;19913;-82
2021/07/01 11:41:34;;;;;;;8.82;5.05;;;;;;;;;;5072813;28;20043;-82
2021/07/01 11:44:04;;;;;;;8.07;5.05;;;;;;;;;;5089336;28;20056;-82
2021/07/01 11:46:30;;;;;;;7.07;5.32;;;;;;;;;;5088492;28;20044;-81
2021/07/01 11:48:59;;;;;;;7.75;5.25;;;;;;;;;;5088514;28;20039;-81
2021/07/01 11:51:26;;;;;;;11.20;6.50;;;;;;;;;;5088392;28;20032;-81
2021/07/01 11:53:51;;;;;;;8.02;6.53;;;;;;;;;;5090346;28;20528;-81
2021/07/01 11:56:20;;;;;;;8.65;6.30;;;;;;;;;;5090763;28;20068;-82
2021/07/01 11:58:48;;;;;;;8.60;6.88;;;;;;;;;;5092498;28;20017;-82
2021/07/01 12:01:15;;;;;;;7.38;6.22;;;;;;;;;;5089245;28;20391;-82
2021/07/01 12:03:41;;;;;;;10.57;6.82;;;;;;;;;;5090341;28;20113;-82
2021/07/01 12:06:24;;;;;;;10.27;7.00;;;;;;;;;;5091315;28;20037;-81
2021/07/01 12:08:50;;;;;;;9.10;6.75;;;;;;;;;;5090201;28;20025;-82
2021/07/01 12:11:15;;;;;;;9.43;6.80;;;;;;;;;;5091369;28;20043;-82
2021/07/01 12:13:41;;;;;;;10.70;7.35;;;;;;;;;;5073307;28;20047;-82
2021/07/01 12:16:15;;;;;;;9.30;6.18;;;;;;;;;;5090282;28;20028;-82
2021/07/01 12:18:43;;;;;;;7.30;6.45;;;;;;;;;;5090908;28;20055;-81
2021/07/01 12:21:10;;;;;;;8.45;6.07;;;;;;;;;;5089669;28;20040;-81
2021/07/01 12:23:45;;;;;;;6.38;5.75;;;;;;;;;;5089149;28;20036;-81
2021/07/01 12:26:29;;;;;;;9.13;5.68;;;;;;;;;;5089420;28;20041;-82
2021/07/01 12:28:54;;;;;;;6.28;5.68;;;;;;;;;;5091114;28;20032;-82
2021/07/01 12:31:25;;;;;;;11.20;6.10;;;;;;;;;;5090900;28;20058;-83
2021/07/01 12:34:03;;;;;;;7.32;6.20;;;;;;;;;;5089575;28;20099;-82
2021/07/01 12:36:28;;;;;;;8.95;5.85;;;;;;;;;;5091913;28;20047;-82
2021/07/01 12:39:03;;;;;;;6.80;5.45;;;;;;;;;;5091141;28;20490;-81
2021/07/01 12:41:29;;;;;;;5.47;4.97;;;;;;;;;;5091177;28;20040;-82
2021/07/01 12:43:57;;;;;;;6.20;4.95;;;;;;;;;;5091688;28;20358;-82
2021/07/01 12:46:41;;;;;;;4.78;4.20;;;;;;;;;;5090881;28;20055;-82
2021/07/01 12:49:07;;;;;;;5.47;4.97;;;;;;;;;;5091169;28;20086;-82
2021/07/01 12:51:56;;;;;;;5.45;4.82;;;;;;;;;;5090091;28;20028;-82
2021/07/01 12:54:22;;;;;;;6.80;4.03;;;;;;;;;;5091179;28;20062;-82
2021/07/01 12:56:49;;;;;;;6.60;5.38;;;;;;;;;;5091276;28;20036;-82
2021/07/01 12:59:15;;;;;;;6.07;4.93;;;;;;;;;;5091431;28;20044;-81
2021/07/01 13:01:40;;;;;;;7.60;5.18;;;;;;;;;;5091007;28;20470;-82
2021/07/01 13:04:06;;;;;;;6.05;4.78;;;;;;;;;;5089667;28;20066;-81
2021/07/01 13:06:32;;;;;;;5.15;4.65;;;;;;;;;;5092464;28;20103;-82
2021/07/01 13:08:57;;;;;;;6.18;4.70;;;;;;;;;;5092287;28;20036;-82
2021/07/01 13:11:23;;;;;;;5.10;4.47;;;;;;;;;;5086940;28;20043;-83
2021/07/01 13:13:58;;;;;;;8.57;4.55;;;;;;;;;;5086106;28;20062;-83
2021/07/01 13:16:24;;;;;;;7.43;4.53;;;;;;;;;;5084276;28;20037;-83
2021/07/01 13:18:49;;;;;;;7.63;4.03;;;;;;;;;;5083002;28;20040;-84
2021/07/01 13:21:14;;;;;;;5.90;3.80;;;;;;;;;;5084549;28;20071;-84
2021/07/01 13:23:40;;;;;;;4.50;3.60;;;;;;;;;;5084785;28;20035;-83
2021/07/01 13:26:13;;;;;;;3.78;3.35;;;;;;;;;;5083904;28;20032;-84
2021/07/01 13:28:39;;;;;;;3.97;3.58;;;;;;;;;;5081082;28;20113;-83
2021/07/01 13:31:05;;;;;;;3.95;3.35;;;;;;;;;;5082325;28;20040;-82
2021/07/01 13:33:30;;;;;;;3.50;3.15;;;;;;;;;;5079680;28;20039;-82
2021/07/01 13:35:56;;;;;;;5.88;3.30;;;;;;;;;;5080117;28;20044;-84
2021/07/01 13:38:24;;;;;;;3.60;3.10;;;;;;;;;;5081339;28;20131;-84
2021/07/01 13:40:51;;;;;;;5.70;3.25;;;;;;;;;;5082963;28;20044;-84
2021/07/01 13:43:19;;;;;;;3.95;2.97;;;;;;;;;;5086768;28;20044;-84
2021/07/01 13:45:46;;;;;;;3.47;2.70;;;;;;;;;;5083073;28;20051;-84
2021/07/01 13:48:22;;;;;;;3.13;2.80;;;;;;;;;;5080156;28;20484;-83
2021/07/01 13:50:52;;;;;;;4.57;2.95;;;;;;;;;;5081327;28;20068;-83
2021/07/01 13:53:19;;;;;;;2.85;2.22;;;;;;;;;;5079409;28;20097;-83
2021/07/01 13:55:56;;;;;;;2.60;2.35;;;;;;;;;;5079418;28;20032;-84
2021/07/01 13:58:26;;;;;;;2.45;2.22;;;;;;;;;;5074407;28;20066;-83
2021/07/01 14:00:53;;;;;;;2.45;1.95;;;;;;;;;;5042681;28;20414;-83
2021/07/01 14:03:26;;;;;;;3.00;2.45;;;;;;;;;;5060563;28;20033;-84
2021/07/01 14:05:54;;;;;;;2.67;1.67;;;;;;;;;;5060201;28;20072;-83
2021/07/01 14:08:24;;;;;;;2.17;1.58;;;;;;;;;;5061402;28;20128;-84
2021/07/01 14:11:07;;;;;;;4.28;1.63;;;;;;;;;;5065687;28;20068;-81
2021/07/01 14:13:39;;;;;;;1.58;1.48;;;;;;;;;;5068268;28;20037;-82
2021/07/01 14:16:05;;;;;;;3.95;1.50;;;;;;;;;;5065798;28;20036;-82
2021/07/01 14:18:30;;;;;;;2.20;1.70;;;;;;;;;;5068210;28;20090;-82
2021/07/01 14:20:57;;;;;;;2.10;1.60;;;;;;;;;;5066131;28;20029;-84
2021/07/01 14:23:24;;;;;;;4.60;3.72;;;;;;;;;;5067248;28;20025;-82
2021/07/01 14:25:50;;;;;;;2.95;2.22;;;;;;;;;;5080329;28;20128;-80
2021/07/01 14:28:22;;;;;;;2.40;2.20;;;;;;;;;;5072084;28;20044;-82
2021/07/01 14:30:53;;;;;;;2.13;1.92;;;;;;;;;;5088216;28;20470;-82
2021/07/01 14:33:52;;;;;;;2.42;1.95;;;;;;;;;;5086842;28;20119;-82
2021/07/01 14:36:28;;;;;;;2.30;2.10;;;;;;;;;;5086022;28;20091;-84
2021/07/01 14:38:59;;;;;;;2.67;2.10;;;;;;;;;;5086397;28;20031;-82
2021/07/01 14:41:39;;;;;;;2.00;1.88;;;;;;;;;;5082911;28;20135;-82
2021/07/01 14:44:07;;;;;;;2.50;2.15;;;;;;;;;;5085138;28;20036;-82
2021/07/01 14:46:45;;;;;;;3.75;1.92;;;;;;;;;;5083735;28;20040;-82
2021/07/01 14:49:13;;;;;;;1.90;1.80;;;;;;;;;;5083237;28;20036;-83
2021/07/01 14:51:49;;;;;;;1.95;1.70;;;;;;;;;;5084311;28;20498;-83
2021/07/01 14:54:17;;;;;;;1.42;1.33;;;;;;;;;;5085769;28;20036;-83
2021/07/01 14:56:55;;;;;;;3.95;1.67;;;;;;;;;;5088364;28;20020;-82
2021/07/01 14:59:22;;;;;;;1.10;1.10;;;;;;;;;;5083296;28;20099;-81
2021/07/01 15:01:53;;;;;;;1.95;1.17;;;;;;;;;;5083615;28;20124;-81